sensor_id;sensor_type;location;lat;lon;timestamp;P1;durP1;ratioP1;P2;durP2;ratioP2
3050;SDS011;1535;51.098;6.414;2022-10-16T00:01:21;7.13;;;4.47;;
3050;SDS011;1535;51.098;6.414;2022-10-16T00:03:50;5.10;;;4.70;;
3050;SDS011;1535;51.098;6.414;2022-10-16T00:06:18;4.80;;;4.60;;
3050;SDS011;1535;51.098;6.414;2022-10-16T00:08:46;4.47;;;4.27;;
3050;SDS011;1535;51.098;6.414;2022-10-16T00:11:14;4.57;;;4.37;;
3050;SDS011;1535;51.098;6.414;2022-10-16T00:13:44;4.97;;;4.50;;
3050;SDS011;1535;51.098;6.414;2022-10-16T00:16:12;6.47;;;4.60;;
3050;SDS011;1535;51.098;6.414;2022-10-16T00:18:40;4.60;;;4.30;;
3050;SDS011;1535;51.098;6.414;2022-10-16T00:21:08;4.80;;;4.40;;
3050;SDS011;1535;51.098;6.414;2022-10-16T00:23:37;4.67;;;4.43;;
3050;SDS011;1535;51.098;6.414;2022-10-16T00:26:05;5.90;;;4.90;;
3050;SDS011;1535;51.098;6.414;2022-10-16T00:28:35;4.60;;;4.30;;
3050;SDS011;1535;51.098;6.414;2022-10-16T00:31:18;5.03;;;4.83;;
3050;SDS011;1535;51.098;6.414;2022-10-16T00:33:47;5.37;;;5.03;;
3050;SDS011;1535;51.098;6.414;2022-10-16T00:36:16;5.33;;;4.93;;
3050;SDS011;1535;51.098;6.414;2022-10-16T00:38:45;5.80;;;5.30;;
3050;SDS011;1535;51.098;6.414;2022-10-16T00:41:13;10.83;;;5.20;;
3050;SDS011;1535;51.098;6.414;2022-10-16T00:43:42;5.53;;;5.17;;
3050;SDS011;1535;51.098;6.414;2022-10-16T00:46:13;5.07;;;4.67;;
3050;SDS011;1535;51.098;6.414;2022-10-16T00:48:46;7.10;;;5.53;;
3050;SDS011;1535;51.098;6.414;2022-10-16T00:51:17;4.63;;;4.33;;
3050;SDS011;1535;51.098;6.414;2022-10-16T00:53:48;4.87;;;4.57;;
3050;SDS011;1535;51.098;6.414;2022-10-16T00:56:15;5.50;;;5.00;;
3050;SDS011;1535;51.098;6.414;2022-10-16T00:58:42;5.03;;;4.63;;
3050;SDS011;1535;51.098;6.414;2022-10-16T01:01:09;7.20;;;4.90;;
3050;SDS011;1535;51.098;6.414;2022-10-16T01:03:36;5.73;;;5.37;;
3050;SDS011;1535;51.098;6.414;2022-10-16T01:06:07;5.63;;;5.23;;
3050;SDS011;1535;51.098;6.414;2022-10-16T01:08:44;6.83;;;5.57;;
3050;SDS011;1535;51.098;6.414;2022-10-16T01:11:21;7.50;;;6.17;;
3050;SDS011;1535;51.098;6.414;2022-10-16T01:13:53;6.10;;;5.60;;
3050;SDS011;1535;51.098;6.414;2022-10-16T01:16:23;5.90;;;5.50;;
3050;SDS011;1535;51.098;6.414;2022-10-16T01:18:57;6.00;;;5.60;;
3050;SDS011;1535;51.098;6.414;2022-10-16T01:21:31;6.40;;;5.17;;
3050;SDS011;1535;51.098;6.414;2022-10-16T01:24:03;5.30;;;4.90;;
3050;SDS011;1535;51.098;6.414;2022-10-16T01:26:42;5.57;;;5.00;;
3050;SDS011;1535;51.098;6.414;2022-10-16T01:29:21;6.23;;;5.23;;
3050;SDS011;1535;51.098;6.414;2022-10-16T01:31:59;5.20;;;4.60;;
3050;SDS011;1535;51.098;6.414;2022-10-16T01:34:30;6.83;;;4.50;;
3050;SDS011;1535;51.098;6.414;2022-10-16T01:37:00;5.77;;;4.63;;
3050;SDS011;1535;51.098;6.414;2022-10-16T01:39:32;5.03;;;4.73;;
3050;SDS011;1535;51.098;6.414;2022-10-16T01:42:03;5.27;;;4.87;;
3050;SDS011;1535;51.098;6.414;2022-10-16T01:44:34;6.00;;;4.73;;
3050;SDS011;1535;51.098;6.414;2022-10-16T01:47:02;7.90;;;4.77;;
3050;SDS011;1535;51.098;6.414;2022-10-16T01:49:32;6.77;;;5.03;;
3050;SDS011;1535;51.098;6.414;2022-10-16T01:52:02;10.20;;;6.00;;
3050;SDS011;1535;51.098;6.414;2022-10-16T01:54:32;8.87;;;4.90;;
3050;SDS011;1535;51.098;6.414;2022-10-16T01:57:02;11.20;;;4.57;;
3050;SDS011;1535;51.098;6.414;2022-10-16T01:59:35;5.90;;;5.50;;
3050;SDS011;1535;51.098;6.414;2022-10-16T02:02:05;5.50;;;5.13;;
3050;SDS011;1535;51.098;6.414;2022-10-16T02:04:36;5.70;;;5.20;;
3050;SDS011;1535;51.098;6.414;2022-10-16T02:07:04;5.47;;;4.97;;
3050;SDS011;1535;51.098;6.414;2022-10-16T02:09:32;5.50;;;5.10;;
3050;SDS011;1535;51.098;6.414;2022-10-16T02:12:01;6.67;;;5.43;;
3050;SDS011;1535;51.098;6.414;2022-10-16T02:14:35;8.90;;;4.80;;
3050;SDS011;1535;51.098;6.414;2022-10-16T02:17:09;5.37;;;5.07;;
3050;SDS011;1535;51.098;6.414;2022-10-16T02:19:37;5.70;;;5.20;;
3050;SDS011;1535;51.098;6.414;2022-10-16T02:22:04;5.23;;;4.93;;
3050;SDS011;1535;51.098;6.414;2022-10-16T02:24:36;5.43;;;4.63;;
3050;SDS011;1535;51.098;6.414;2022-10-16T02:27:10;5.57;;;5.00;;
3050;SDS011;1535;51.098;6.414;2022-10-16T02:29:42;5.80;;;5.30;;
3050;SDS011;1535;51.098;6.414;2022-10-16T02:32:14;5.57;;;5.17;;
3050;SDS011;1535;51.098;6.414;2022-10-16T02:34:43;5.17;;;4.80;;
3050;SDS011;1535;51.098;6.414;2022-10-16T02:37:11;6.73;;;5.40;;
3050;SDS011;1535;51.098;6.414;2022-10-16T02:39:38;5.97;;;5.47;;
3050;SDS011;1535;51.098;6.414;2022-10-16T02:42:09;6.00;;;5.50;;
3050;SDS011;1535;51.098;6.414;2022-10-16T02:44:37;7.10;;;5.90;;
3050;SDS011;1535;51.098;6.414;2022-10-16T02:47:06;5.87;;;5.37;;
3050;SDS011;1535;51.098;6.414;2022-10-16T02:49:33;5.97;;;5.57;;
3050;SDS011;1535;51.098;6.414;2022-10-16T02:52:00;6.47;;;6.13;;
3050;SDS011;1535;51.098;6.414;2022-10-16T02:54:28;8.20;;;5.80;;
3050;SDS011;1535;51.098;6.414;2022-10-16T02:56:55;6.30;;;5.90;;
3050;SDS011;1535;51.098;6.414;2022-10-16T02:59:22;6.63;;;5.70;;
3050;SDS011;1535;51.098;6.414;2022-10-16T03:01:49;8.00;;;6.03;;
3050;SDS011;1535;51.098;6.414;2022-10-16T03:04:17;7.87;;;5.50;;
3050;SDS011;1535;51.098;6.414;2022-10-16T03:06:43;6.00;;;5.60;;
3050;SDS011;1535;51.098;6.414;2022-10-16T03:09:10;5.87;;;5.50;;
3050;SDS011;1535;51.098;6.414;2022-10-16T03:11:37;6.20;;;5.67;;
3050;SDS011;1535;51.098;6.414;2022-10-16T03:14:03;9.53;;;5.57;;
3050;SDS011;1535;51.098;6.414;2022-10-16T03:16:30;5.90;;;5.40;;
3050;SDS011;1535;51.098;6.414;2022-10-16T03:18:58;5.53;;;5.23;;
3050;SDS011;1535;51.098;6.414;2022-10-16T03:21:26;5.83;;;5.43;;
3050;SDS011;1535;51.098;6.414;2022-10-16T03:23:53;9.23;;;5.50;;
3050;SDS011;1535;51.098;6.414;2022-10-16T03:26:20;5.67;;;5.17;;
3050;SDS011;1535;51.098;6.414;2022-10-16T03:28:47;5.73;;;5.23;;
3050;SDS011;1535;51.098;6.414;2022-10-16T03:31:14;7.03;;;5.40;;
3050;SDS011;1535;51.098;6.414;2022-10-16T03:33:42;5.73;;;5.33;;
3050;SDS011;1535;51.098;6.414;2022-10-16T03:36:09;5.97;;;5.60;;
3050;SDS011;1535;51.098;6.414;2022-10-16T03:38:37;6.13;;;5.50;;
3050;SDS011;1535;51.098;6.414;2022-10-16T03:41:04;6.80;;;6.40;;
3050;SDS011;1535;51.098;6.414;2022-10-16T03:43:32;6.47;;;6.17;;
3050;SDS011;1535;51.098;6.414;2022-10-16T03:45:59;6.50;;;6.03;;
3050;SDS011;1535;51.098;6.414;2022-10-16T03:48:28;7.00;;;6.30;;
3050;SDS011;1535;51.098;6.414;2022-10-16T03:50:55;6.87;;;6.27;;
3050;SDS011;1535;51.098;6.414;2022-10-16T03:53:22;7.70;;;6.80;;
3050;SDS011;1535;51.098;6.414;2022-10-16T03:55:50;7.20;;;6.70;;
3050;SDS011;1535;51.098;6.414;2022-10-16T03:58:17;6.97;;;6.53;;
3050;SDS011;1535;51.098;6.414;2022-10-16T04:00:45;7.23;;;6.73;;
3050;SDS011;1535;51.098;6.414;2022-10-16T04:03:12;6.40;;;5.73;;
3050;SDS011;1535;51.098;6.414;2022-10-16T04:05:39;6.77;;;6.30;;
3050;SDS011;1535;51.098;6.414;2022-10-16T04:08:06;7.30;;;6.80;;
3050;SDS011;1535;51.098;6.414;2022-10-16T04:10:34;7.20;;;6.80;;
3050;SDS011;1535;51.098;6.414;2022-10-16T04:13:02;7.03;;;6.50;;
3050;SDS011;1535;51.098;6.414;2022-10-16T04:15:29;7.97;;;6.90;;
3050;SDS011;1535;51.098;6.414;2022-10-16T04:17:57;9.30;;;6.23;;
3050;SDS011;1535;51.098;6.414;2022-10-16T04:20:24;6.97;;;6.50;;
3050;SDS011;1535;51.098;6.414;2022-10-16T04:22:51;6.50;;;6.03;;
3050;SDS011;1535;51.098;6.414;2022-10-16T04:25:17;6.73;;;6.10;;
3050;SDS011;1535;51.098;6.414;2022-10-16T04:27:44;7.07;;;6.37;;
3050;SDS011;1535;51.098;6.414;2022-10-16T04:30:13;6.37;;;5.77;;
3050;SDS011;1535;51.098;6.414;2022-10-16T04:32:40;7.30;;;6.67;;
3050;SDS011;1535;51.098;6.414;2022-10-16T04:35:07;9.63;;;7.10;;
3050;SDS011;1535;51.098;6.414;2022-10-16T04:37:35;11.50;;;7.17;;
3050;SDS011;1535;51.098;6.414;2022-10-16T04:40:02;9.83;;;6.30;;
3050;SDS011;1535;51.098;6.414;2022-10-16T04:42:30;7.80;;;7.13;;
3050;SDS011;1535;51.098;6.414;2022-10-16T04:44:57;7.20;;;6.60;;
3050;SDS011;1535;51.098;6.414;2022-10-16T04:47:25;7.73;;;7.03;;
3050;SDS011;1535;51.098;6.414;2022-10-16T04:49:52;8.00;;;7.17;;
3050;SDS011;1535;51.098;6.414;2022-10-16T04:52:19;7.33;;;6.53;;
3050;SDS011;1535;51.098;6.414;2022-10-16T04:54:49;7.23;;;6.33;;
3050;SDS011;1535;51.098;6.414;2022-10-16T04:57:16;7.87;;;7.00;;
3050;SDS011;1535;51.098;6.414;2022-10-16T04:59:43;7.17;;;6.30;;
3050;SDS011;1535;51.098;6.414;2022-10-16T05:02:11;7.93;;;6.77;;
3050;SDS011;1535;51.098;6.414;2022-10-16T05:04:39;7.53;;;7.00;;
3050;SDS011;1535;51.098;6.414;2022-10-16T05:07:06;7.60;;;7.00;;
3050;SDS011;1535;51.098;6.414;2022-10-16T05:09:33;7.93;;;7.00;;
3050;SDS011;1535;51.098;6.414;2022-10-16T05:12:00;8.97;;;7.60;;
3050;SDS011;1535;51.098;6.414;2022-10-16T05:14:29;9.20;;;7.33;;
3050;SDS011;1535;51.098;6.414;2022-10-16T05:16:56;7.70;;;7.20;;
3050;SDS011;1535;51.098;6.414;2022-10-16T05:19:23;8.40;;;7.13;;
3050;SDS011;1535;51.098;6.414;2022-10-16T05:21:51;8.20;;;7.00;;
3050;SDS011;1535;51.098;6.414;2022-10-16T05:24:18;6.57;;;5.97;;
3050;SDS011;1535;51.098;6.414;2022-10-16T05:26:45;6.43;;;6.03;;
3050;SDS011;1535;51.098;6.414;2022-10-16T05:29:12;7.03;;;6.60;;
3050;SDS011;1535;51.098;6.414;2022-10-16T05:31:39;8.70;;;6.80;;
3050;SDS011;1535;51.098;6.414;2022-10-16T05:34:06;10.53;;;7.13;;
3050;SDS011;1535;51.098;6.414;2022-10-16T05:36:33;7.57;;;6.80;;
3050;SDS011;1535;51.098;6.414;2022-10-16T05:39:01;13.07;;;6.60;;
3050;SDS011;1535;51.098;6.414;2022-10-16T05:41:28;13.93;;;7.97;;
3050;SDS011;1535;51.098;6.414;2022-10-16T05:43:56;7.53;;;6.80;;
3050;SDS011;1535;51.098;6.414;2022-10-16T05:46:23;11.93;;;7.73;;
3050;SDS011;1535;51.098;6.414;2022-10-16T05:48:51;10.00;;;8.00;;
3050;SDS011;1535;51.098;6.414;2022-10-16T05:51:19;9.33;;;7.00;;
3050;SDS011;1535;51.098;6.414;2022-10-16T05:53:46;9.40;;;7.57;;
3050;SDS011;1535;51.098;6.414;2022-10-16T05:56:14;12.83;;;8.53;;
3050;SDS011;1535;51.098;6.414;2022-10-16T05:58:42;7.77;;;7.17;;
3050;SDS011;1535;51.098;6.414;2022-10-16T06:01:11;12.30;;;7.37;;
3050;SDS011;1535;51.098;6.414;2022-10-16T06:03:38;8.53;;;7.73;;
3050;SDS011;1535;51.098;6.414;2022-10-16T06:06:09;7.67;;;7.10;;
3050;SDS011;1535;51.098;6.414;2022-10-16T06:08:37;8.13;;;7.47;;
3050;SDS011;1535;51.098;6.414;2022-10-16T06:11:05;13.90;;;8.50;;
3050;SDS011;1535;51.098;6.414;2022-10-16T06:13:34;8.30;;;7.70;;
3050;SDS011;1535;51.098;6.414;2022-10-16T06:16:01;10.90;;;7.50;;
3050;SDS011;1535;51.098;6.414;2022-10-16T06:18:29;10.33;;;7.53;;
3050;SDS011;1535;51.098;6.414;2022-10-16T06:20:56;8.37;;;7.47;;
3050;SDS011;1535;51.098;6.414;2022-10-16T06:23:23;12.13;;;7.50;;
3050;SDS011;1535;51.098;6.414;2022-10-16T06:25:51;8.40;;;7.70;;
3050;SDS011;1535;51.098;6.414;2022-10-16T06:28:18;8.60;;;7.90;;
3050;SDS011;1535;51.098;6.414;2022-10-16T06:30:46;9.03;;;7.70;;
3050;SDS011;1535;51.098;6.414;2022-10-16T06:33:13;8.03;;;7.43;;
3050;SDS011;1535;51.098;6.414;2022-10-16T06:35:39;10.23;;;7.77;;
3050;SDS011;1535;51.098;6.414;2022-10-16T06:38:06;9.00;;;8.30;;
3050;SDS011;1535;51.098;6.414;2022-10-16T06:40:33;8.50;;;7.80;;
3050;SDS011;1535;51.098;6.414;2022-10-16T06:43:00;7.83;;;7.23;;
3050;SDS011;1535;51.098;6.414;2022-10-16T06:45:26;10.30;;;7.53;;
3050;SDS011;1535;51.098;6.414;2022-10-16T06:47:55;10.20;;;8.27;;
3050;SDS011;1535;51.098;6.414;2022-10-16T06:50:21;8.23;;;7.50;;
3050;SDS011;1535;51.098;6.414;2022-10-16T06:52:48;8.00;;;7.40;;
3050;SDS011;1535;51.098;6.414;2022-10-16T06:55:15;8.70;;;7.90;;
3050;SDS011;1535;51.098;6.414;2022-10-16T06:57:43;10.90;;;8.00;;
3050;SDS011;1535;51.098;6.414;2022-10-16T07:00:12;8.10;;;7.60;;
3050;SDS011;1535;51.098;6.414;2022-10-16T07:02:39;8.47;;;7.93;;
3050;SDS011;1535;51.098;6.414;2022-10-16T07:05:07;7.90;;;7.40;;
3050;SDS011;1535;51.098;6.414;2022-10-16T07:07:35;7.73;;;7.27;;
3050;SDS011;1535;51.098;6.414;2022-10-16T07:10:02;8.13;;;7.30;;
3050;SDS011;1535;51.098;6.414;2022-10-16T07:12:29;6.77;;;6.27;;
3050;SDS011;1535;51.098;6.414;2022-10-16T07:14:57;7.73;;;7.03;;
3050;SDS011;1535;51.098;6.414;2022-10-16T07:17:24;6.10;;;5.80;;
3050;SDS011;1535;51.098;6.414;2022-10-16T07:19:50;5.70;;;5.30;;
3050;SDS011;1535;51.098;6.414;2022-10-16T07:22:19;6.30;;;5.80;;
3050;SDS011;1535;51.098;6.414;2022-10-16T07:24:46;6.50;;;6.00;;
3050;SDS011;1535;51.098;6.414;2022-10-16T07:27:13;9.10;;;6.57;;
3050;SDS011;1535;51.098;6.414;2022-10-16T07:29:41;5.97;;;5.53;;
3050;SDS011;1535;51.098;6.414;2022-10-16T07:32:08;6.23;;;5.80;;
3050;SDS011;1535;51.098;6.414;2022-10-16T07:34:35;5.30;;;5.10;;
3050;SDS011;1535;51.098;6.414;2022-10-16T07:37:02;6.30;;;5.80;;
3050;SDS011;1535;51.098;6.414;2022-10-16T07:39:30;6.73;;;5.50;;
3050;SDS011;1535;51.098;6.414;2022-10-16T07:41:56;5.63;;;5.23;;
3050;SDS011;1535;51.098;6.414;2022-10-16T07:44:23;5.87;;;5.40;;
3050;SDS011;1535;51.098;6.414;2022-10-16T07:46:50;6.73;;;6.10;;
3050;SDS011;1535;51.098;6.414;2022-10-16T07:49:17;5.17;;;4.77;;
3050;SDS011;1535;51.098;6.414;2022-10-16T07:51:45;6.83;;;5.70;;
3050;SDS011;1535;51.098;6.414;2022-10-16T07:54:12;5.63;;;5.23;;
3050;SDS011;1535;51.098;6.414;2022-10-16T07:56:40;5.90;;;5.47;;
3050;SDS011;1535;51.098;6.414;2022-10-16T07:59:08;5.10;;;4.87;;
3050;SDS011;1535;51.098;6.414;2022-10-16T08:01:34;5.47;;;5.07;;
3050;SDS011;1535;51.098;6.414;2022-10-16T08:04:01;5.73;;;5.33;;
3050;SDS011;1535;51.098;6.414;2022-10-16T08:06:28;7.43;;;4.83;;
3050;SDS011;1535;51.098;6.414;2022-10-16T08:08:55;5.53;;;4.90;;
3050;SDS011;1535;51.098;6.414;2022-10-16T08:11:22;5.63;;;5.07;;
3050;SDS011;1535;51.098;6.414;2022-10-16T08:13:50;4.90;;;4.60;;
3050;SDS011;1535;51.098;6.414;2022-10-16T08:16:17;12.23;;;9.17;;
3050;SDS011;1535;51.098;6.414;2022-10-16T08:18:44;7.83;;;5.20;;
3050;SDS011;1535;51.098;6.414;2022-10-16T08:21:12;5.37;;;4.87;;
3050;SDS011;1535;51.098;6.414;2022-10-16T08:23:40;4.60;;;4.40;;
3050;SDS011;1535;51.098;6.414;2022-10-16T08:26:09;6.27;;;4.87;;
3050;SDS011;1535;51.098;6.414;2022-10-16T08:28:37;5.07;;;4.67;;
3050;SDS011;1535;51.098;6.414;2022-10-16T08:31:06;5.20;;;4.13;;
3050;SDS011;1535;51.098;6.414;2022-10-16T08:33:34;6.00;;;5.03;;
3050;SDS011;1535;51.098;6.414;2022-10-16T08:36:02;4.87;;;4.43;;
3050;SDS011;1535;51.098;6.414;2022-10-16T08:38:30;5.17;;;4.70;;
3050;SDS011;1535;51.098;6.414;2022-10-16T08:41:01;8.10;;;4.33;;
3050;SDS011;1535;51.098;6.414;2022-10-16T08:43:42;5.27;;;4.90;;
3050;SDS011;1535;51.098;6.414;2022-10-16T08:46:32;6.33;;;5.47;;
3050;SDS011;1535;51.098;6.414;2022-10-16T08:49:05;6.97;;;6.00;;
3050;SDS011;1535;51.098;6.414;2022-10-16T08:51:38;5.57;;;5.00;;
3050;SDS011;1535;51.098;6.414;2022-10-16T08:54:05;6.03;;;5.40;;
3050;SDS011;1535;51.098;6.414;2022-10-16T08:56:48;7.37;;;6.53;;
3050;SDS011;1535;51.098;6.414;2022-10-16T08:59:15;5.80;;;5.40;;
3050;SDS011;1535;51.098;6.414;2022-10-16T09:01:45;8.83;;;6.23;;
3050;SDS011;1535;51.098;6.414;2022-10-16T09:07:20;6.60;;;6.10;;
3050;SDS011;1535;51.098;6.414;2022-10-16T09:09:58;7.07;;;6.67;;
3050;SDS011;1535;51.098;6.414;2022-10-16T09:12:39;6.83;;;6.53;;
3050;SDS011;1535;51.098;6.414;2022-10-16T09:15:14;7.60;;;6.90;;
3050;SDS011;1535;51.098;6.414;2022-10-16T09:17:52;6.80;;;6.10;;
3050;SDS011;1535;51.098;6.414;2022-10-16T09:20:28;6.27;;;6.00;;
3050;SDS011;1535;51.098;6.414;2022-10-16T09:23:04;8.63;;;6.90;;
3050;SDS011;1535;51.098;6.414;2022-10-16T09:25:38;8.37;;;7.87;;
3050;SDS011;1535;51.098;6.414;2022-10-16T09:28:07;7.80;;;7.40;;
3050;SDS011;1535;51.098;6.414;2022-10-16T09:30:34;8.10;;;7.60;;
3050;SDS011;1535;51.098;6.414;2022-10-16T09:33:02;8.43;;;7.73;;
3050;SDS011;1535;51.098;6.414;2022-10-16T09:35:31;7.97;;;7.57;;
3050;SDS011;1535;51.098;6.414;2022-10-16T09:38:01;8.00;;;7.70;;
3050;SDS011;1535;51.098;6.414;2022-10-16T09:40:28;8.37;;;7.97;;
3050;SDS011;1535;51.098;6.414;2022-10-16T09:43:00;8.40;;;8.00;;
3050;SDS011;1535;51.098;6.414;2022-10-16T09:45:32;9.07;;;8.27;;
3050;SDS011;1535;51.098;6.414;2022-10-16T09:48:02;9.20;;;8.70;;
3050;SDS011;1535;51.098;6.414;2022-10-16T09:50:37;8.73;;;8.33;;
3050;SDS011;1535;51.098;6.414;2022-10-16T09:53:05;9.30;;;8.53;;
3050;SDS011;1535;51.098;6.414;2022-10-16T09:55:47;9.93;;;9.23;;
3050;SDS011;1535;51.098;6.414;2022-10-16T09:58:14;9.73;;;9.07;;
3050;SDS011;1535;51.098;6.414;2022-10-16T10:00:41;11.17;;;10.27;;
3050;SDS011;1535;51.098;6.414;2022-10-16T10:03:17;10.60;;;9.90;;
3050;SDS011;1535;51.098;6.414;2022-10-16T10:05:58;10.10;;;9.50;;
3050;SDS011;1535;51.098;6.414;2022-10-16T10:08:26;10.60;;;10.00;;
3050;SDS011;1535;51.098;6.414;2022-10-16T10:10:53;10.83;;;10.27;;
3050;SDS011;1535;51.098;6.414;2022-10-16T10:13:21;10.90;;;10.20;;
3050;SDS011;1535;51.098;6.414;2022-10-16T10:15:50;10.70;;;10.10;;
3050;SDS011;1535;51.098;6.414;2022-10-16T10:18:20;9.70;;;9.20;;
3050;SDS011;1535;51.098;6.414;2022-10-16T10:20:56;9.90;;;9.50;;
3050;SDS011;1535;51.098;6.414;2022-10-16T10:23:25;9.87;;;9.47;;
3050;SDS011;1535;51.098;6.414;2022-10-16T10:25:53;9.37;;;8.87;;
3050;SDS011;1535;51.098;6.414;2022-10-16T10:28:35;10.37;;;9.87;;
3050;SDS011;1535;51.098;6.414;2022-10-16T10:31:13;10.10;;;9.47;;
3050;SDS011;1535;51.098;6.414;2022-10-16T10:33:45;9.83;;;9.33;;
3050;SDS011;1535;51.098;6.414;2022-10-16T10:36:19;10.20;;;9.60;;
3050;SDS011;1535;51.098;6.414;2022-10-16T10:38:53;10.20;;;9.73;;
3050;SDS011;1535;51.098;6.414;2022-10-16T10:44:30;10.90;;;10.10;;
3050;SDS011;1535;51.098;6.414;2022-10-16T10:47:18;10.03;;;9.53;;
3050;SDS011;1535;51.098;6.414;2022-10-16T10:50:05;10.53;;;9.90;;
3050;SDS011;1535;51.098;6.414;2022-10-16T10:52:38;10.40;;;9.80;;
3050;SDS011;1535;51.098;6.414;2022-10-16T10:55:17;10.83;;;10.07;;
3050;SDS011;1535;51.098;6.414;2022-10-16T10:58:04;9.87;;;9.40;;
3050;SDS011;1535;51.098;6.414;2022-10-16T11:00:45;11.27;;;10.23;;
3050;SDS011;1535;51.098;6.414;2022-10-16T11:03:26;11.00;;;10.40;;
3050;SDS011;1535;51.098;6.414;2022-10-16T11:06:04;11.27;;;10.57;;
3050;SDS011;1535;51.098;6.414;2022-10-16T11:08:35;11.60;;;10.97;;
3050;SDS011;1535;51.098;6.414;2022-10-16T11:11:06;11.27;;;10.43;;
3050;SDS011;1535;51.098;6.414;2022-10-16T11:13:38;11.80;;;11.00;;
3050;SDS011;1535;51.098;6.414;2022-10-16T11:16:13;11.27;;;10.77;;
3050;SDS011;1535;51.098;6.414;2022-10-16T11:18:46;11.90;;;11.40;;
3050;SDS011;1535;51.098;6.414;2022-10-16T11:21:20;11.67;;;10.93;;
3050;SDS011;1535;51.098;6.414;2022-10-16T11:23:50;11.77;;;10.90;;
3050;SDS011;1535;51.098;6.414;2022-10-16T11:26:23;11.80;;;11.10;;
3050;SDS011;1535;51.098;6.414;2022-10-16T11:28:54;11.63;;;11.13;;
3050;SDS011;1535;51.098;6.414;2022-10-16T11:31:25;11.97;;;11.47;;
3050;SDS011;1535;51.098;6.414;2022-10-16T11:33:59;11.57;;;10.60;;
3050;SDS011;1535;51.098;6.414;2022-10-16T11:36:33;10.90;;;10.40;;
3050;SDS011;1535;51.098;6.414;2022-10-16T11:39:07;10.80;;;10.00;;
3050;SDS011;1535;51.098;6.414;2022-10-16T11:41:42;11.43;;;10.83;;
3050;SDS011;1535;51.098;6.414;2022-10-16T11:44:16;10.70;;;10.30;;
3050;SDS011;1535;51.098;6.414;2022-10-16T11:47:02;11.00;;;10.10;;
3050;SDS011;1535;51.098;6.414;2022-10-16T11:49:37;11.10;;;10.40;;
3050;SDS011;1535;51.098;6.414;2022-10-16T11:52:11;10.63;;;10.03;;
3050;SDS011;1535;51.098;6.414;2022-10-16T11:54:44;11.80;;;11.20;;
3050;SDS011;1535;51.098;6.414;2022-10-16T11:57:15;12.10;;;11.30;;
3050;SDS011;1535;51.098;6.414;2022-10-16T11:59:46;12.03;;;11.17;;
3050;SDS011;1535;51.098;6.414;2022-10-16T12:02:28;11.37;;;10.87;;
3050;SDS011;1535;51.098;6.414;2022-10-16T12:05:03;12.87;;;12.17;;
3050;SDS011;1535;51.098;6.414;2022-10-16T12:07:43;11.57;;;10.87;;
3050;SDS011;1535;51.098;6.414;2022-10-16T12:10:20;11.17;;;10.50;;
3050;SDS011;1535;51.098;6.414;2022-10-16T12:12:48;11.37;;;10.77;;
3050;SDS011;1535;51.098;6.414;2022-10-16T12:15:18;12.13;;;11.50;;
3050;SDS011;1535;51.098;6.414;2022-10-16T12:17:49;11.93;;;11.43;;
3050;SDS011;1535;51.098;6.414;2022-10-16T12:20:20;12.00;;;11.40;;
3050;SDS011;1535;51.098;6.414;2022-10-16T12:22:51;11.33;;;10.63;;
3050;SDS011;1535;51.098;6.414;2022-10-16T12:25:21;11.30;;;10.60;;
3050;SDS011;1535;51.098;6.414;2022-10-16T12:30:43;13.00;;;12.33;;
3050;SDS011;1535;51.098;6.414;2022-10-16T12:33:20;12.47;;;11.97;;
3050;SDS011;1535;51.098;6.414;2022-10-16T12:35:50;12.13;;;11.60;;
3050;SDS011;1535;51.098;6.414;2022-10-16T12:38:19;11.17;;;10.60;;
3050;SDS011;1535;51.098;6.414;2022-10-16T12:40:53;12.93;;;12.07;;
3050;SDS011;1535;51.098;6.414;2022-10-16T12:43:28;12.07;;;11.47;;
3050;SDS011;1535;51.098;6.414;2022-10-16T12:46:04;12.33;;;11.73;;
3050;SDS011;1535;51.098;6.414;2022-10-16T12:48:46;12.97;;;12.30;;
3050;SDS011;1535;51.098;6.414;2022-10-16T12:51:21;12.50;;;11.90;;
3050;SDS011;1535;51.098;6.414;2022-10-16T12:53:59;12.60;;;12.07;;
3050;SDS011;1535;51.098;6.414;2022-10-16T12:56:28;12.43;;;11.80;;
3050;SDS011;1535;51.098;6.414;2022-10-16T12:59:07;12.27;;;11.40;;
3050;SDS011;1535;51.098;6.414;2022-10-16T13:01:42;11.30;;;10.80;;
3050;SDS011;1535;51.098;6.414;2022-10-16T13:04:29;11.60;;;11.10;;
3050;SDS011;1535;51.098;6.414;2022-10-16T13:07:15;12.73;;;12.13;;
3050;SDS011;1535;51.098;6.414;2022-10-16T13:10:08;13.73;;;12.83;;
3050;SDS011;1535;51.098;6.414;2022-10-16T13:12:48;11.77;;;11.27;;
3050;SDS011;1535;51.098;6.414;2022-10-16T13:15:28;12.87;;;12.27;;
3050;SDS011;1535;51.098;6.414;2022-10-16T13:18:05;11.17;;;10.67;;
3050;SDS011;1535;51.098;6.414;2022-10-16T13:20:43;11.77;;;11.20;;
3050;SDS011;1535;51.098;6.414;2022-10-16T13:23:21;12.33;;;11.53;;
3050;SDS011;1535;51.098;6.414;2022-10-16T13:25:58;12.97;;;12.30;;
3050;SDS011;1535;51.098;6.414;2022-10-16T13:28:33;13.20;;;12.30;;
3050;SDS011;1535;51.098;6.414;2022-10-16T13:31:02;13.50;;;12.80;;
3050;SDS011;1535;51.098;6.414;2022-10-16T13:33:31;13.17;;;12.60;;
3050;SDS011;1535;51.098;6.414;2022-10-16T13:36:02;12.60;;;11.90;;
3050;SDS011;1535;51.098;6.414;2022-10-16T13:38:31;13.43;;;12.63;;
3050;SDS011;1535;51.098;6.414;2022-10-16T13:41:01;13.23;;;12.63;;
3050;SDS011;1535;51.098;6.414;2022-10-16T13:43:29;13.50;;;12.90;;
3050;SDS011;1535;51.098;6.414;2022-10-16T13:46:01;14.20;;;13.17;;
3050;SDS011;1535;51.098;6.414;2022-10-16T13:48:30;13.30;;;12.70;;
3050;SDS011;1535;51.098;6.414;2022-10-16T13:51:00;14.00;;;13.37;;
3050;SDS011;1535;51.098;6.414;2022-10-16T13:53:32;13.63;;;12.90;;
3050;SDS011;1535;51.098;6.414;2022-10-16T13:56:03;13.57;;;12.70;;
3050;SDS011;1535;51.098;6.414;2022-10-16T13:58:30;13.60;;;12.97;;
3050;SDS011;1535;51.098;6.414;2022-10-16T14:00:57;14.20;;;13.20;;
3050;SDS011;1535;51.098;6.414;2022-10-16T14:03:26;13.67;;;12.87;;
3050;SDS011;1535;51.098;6.414;2022-10-16T14:05:55;13.93;;;13.33;;
3050;SDS011;1535;51.098;6.414;2022-10-16T14:08:25;12.67;;;12.00;;
3050;SDS011;1535;51.098;6.414;2022-10-16T14:10:55;12.70;;;11.70;;
3050;SDS011;1535;51.098;6.414;2022-10-16T14:13:28;13.30;;;12.60;;
3050;SDS011;1535;51.098;6.414;2022-10-16T14:15:58;13.03;;;12.27;;
3050;SDS011;1535;51.098;6.414;2022-10-16T14:18:28;13.63;;;12.93;;
3050;SDS011;1535;51.098;6.414;2022-10-16T14:21:03;13.30;;;12.70;;
3050;SDS011;1535;51.098;6.414;2022-10-16T14:23:31;13.20;;;12.70;;
3050;SDS011;1535;51.098;6.414;2022-10-16T14:29:03;13.67;;;13.07;;
3050;SDS011;1535;51.098;6.414;2022-10-16T14:31:36;13.50;;;12.90;;
3050;SDS011;1535;51.098;6.414;2022-10-16T14:34:04;14.33;;;13.07;;
3050;SDS011;1535;51.098;6.414;2022-10-16T14:36:49;13.50;;;12.80;;
3050;SDS011;1535;51.098;6.414;2022-10-16T14:39:17;13.17;;;12.47;;
3050;SDS011;1535;51.098;6.414;2022-10-16T14:41:46;12.20;;;11.70;;
3050;SDS011;1535;51.098;6.414;2022-10-16T14:44:16;12.93;;;12.33;;
3050;SDS011;1535;51.098;6.414;2022-10-16T14:46:44;13.53;;;12.93;;
3050;SDS011;1535;51.098;6.414;2022-10-16T14:49:15;13.03;;;12.43;;
3050;SDS011;1535;51.098;6.414;2022-10-16T14:51:45;12.93;;;12.23;;
3050;SDS011;1535;51.098;6.414;2022-10-16T14:54:13;12.60;;;12.10;;
3050;SDS011;1535;51.098;6.414;2022-10-16T14:56:42;13.30;;;12.70;;
3050;SDS011;1535;51.098;6.414;2022-10-16T14:59:14;14.17;;;13.23;;
3050;SDS011;1535;51.098;6.414;2022-10-16T15:01:45;13.53;;;12.83;;
3050;SDS011;1535;51.098;6.414;2022-10-16T15:04:12;14.10;;;13.30;;
3050;SDS011;1535;51.098;6.414;2022-10-16T15:06:40;12.60;;;12.00;;
3050;SDS011;1535;51.098;6.414;2022-10-16T15:09:08;12.90;;;12.30;;
3050;SDS011;1535;51.098;6.414;2022-10-16T15:11:35;12.03;;;11.53;;
3050;SDS011;1535;51.098;6.414;2022-10-16T15:14:02;11.80;;;11.30;;
3050;SDS011;1535;51.098;6.414;2022-10-16T15:16:32;12.00;;;11.50;;
3050;SDS011;1535;51.098;6.414;2022-10-16T15:18:59;13.30;;;12.50;;
3050;SDS011;1535;51.098;6.414;2022-10-16T15:21:27;18.10;;;16.60;;
3050;SDS011;1535;51.098;6.414;2022-10-16T15:23:55;15.63;;;14.50;;
3050;SDS011;1535;51.098;6.414;2022-10-16T15:26:23;14.33;;;13.33;;
3050;SDS011;1535;51.098;6.414;2022-10-16T15:28:49;21.63;;;19.77;;
3050;SDS011;1535;51.098;6.414;2022-10-16T15:31:16;17.53;;;15.83;;
3050;SDS011;1535;51.098;6.414;2022-10-16T15:33:44;20.43;;;18.53;;
3050;SDS011;1535;51.098;6.414;2022-10-16T15:36:17;15.20;;;14.00;;